sensor_id;sensor_type;location;lat;lon;timestamp;pressure;altitude;pressure_sealevel;temperature;humidity
79316;BME280;68779;50.036;19.964;2023-05-17T00:11:03;101169.55;;;15.58;75.96
79316;BME280;68779;50.036;19.964;2023-05-17T00:41:19;101144.73;;;15.68;75.14
79316;BME280;68779;50.036;19.964;2023-05-17T01:11:52;101162.87;;;15.69;75.04
79316;BME280;68779;50.036;19.964;2023-05-17T01:42:19;101169.20;;;15.61;74.58
79316;BME280;68779;50.036;19.964;2023-05-17T02:12:34;101201.59;;;15.66;74.48
79316;BME280;68779;50.036;19.964;2023-05-17T02:42:50;101188.82;;;15.40;74.75
79316;BME280;68779;50.036;19.964;2023-05-17T03:13:04;101195.66;;;15.36;73.38
79316;BME280;68779;50.036;19.964;2023-05-17T03:43:19;101219.52;;;15.02;74.10
79316;BME280;68779;50.036;19.964;2023-05-17T04:13:35;101278.79;;;15.11;73.68
79316;BME280;68779;50.036;19.964;2023-05-17T04:43:50;101302.75;;;15.09;74.62
79316;BME280;68779;50.036;19.964;2023-05-17T05:14:04;101301.88;;;15.09;75.02
79316;BME280;68779;50.036;19.964;2023-05-17T05:44:18;101331.15;;;15.08;75.09
79316;BME280;68779;50.036;19.964;2023-05-17T06:14:31;101374.45;;;15.05;75.81
79316;BME280;68779;50.036;19.964;2023-05-17T06:44:45;101401.20;;;15.36;74.01
79316;BME280;68779;50.036;19.964;2023-05-17T07:14:59;101418.20;;;15.40;74.25
79316;BME280;68779;50.036;19.964;2023-05-17T07:45:13;101463.24;;;15.20;75.54
79316;BME280;68779;50.036;19.964;2023-05-17T08:15:26;101496.78;;;15.57;74.20
79316;BME280;68779;50.036;19.964;2023-05-17T08:45:40;101507.70;;;15.31;75.48
79316;BME280;68779;50.036;19.964;2023-05-17T09:15:57;101563.76;;;15.37;74.48
79316;BME280;68779;50.036;19.964;2023-05-17T10:03:33;101633.96;;;14.76;76.34
79316;BME280;68779;50.036;19.964;2023-05-17T10:33:49;101652.24;;;14.48;74.88
79316;BME280;68779;50.036;19.964;2023-05-17T11:34:32;101702.02;;;13.86;77.05
79316;BME280;68779;50.036;19.964;2023-05-17T12:04:46;101726.19;;;13.52;77.14
79316;BME280;68779;50.036;19.964;2023-05-17T12:34:59;101733.84;;;13.96;75.96
79316;BME280;68779;50.036;19.964;2023-05-17T13:05:18;101794.44;;;13.03;77.84
79316;BME280;68779;50.036;19.964;2023-05-17T13:35:36;101842.17;;;12.57;76.69
79316;BME280;68779;50.036;19.964;2023-05-17T14:05:51;101901.44;;;12.35;76.38
79316;BME280;68779;50.036;19.964;2023-05-17T14:36:06;101927.48;;;12.59;75.30
79316;BME280;68779;50.036;19.964;2023-05-17T15:06:20;101948.72;;;12.77;75.63
79316;BME280;68779;50.036;19.964;2023-05-17T15:36:37;101990.88;;;12.52;76.50
79316;BME280;68779;50.036;19.964;2023-05-17T16:06:51;102014.38;;;12.21;76.19
79316;BME280;68779;50.036;19.964;2023-05-17T16:37:04;102039.76;;;11.66;77.10
79316;BME280;68779;50.036;19.964;2023-05-17T17:07:18;102060.51;;;11.34;78.23
79316;BME280;68779;50.036;19.964;2023-05-17T17:37:32;102092.09;;;11.82;77.64
79316;BME280;68779;50.036;19.964;2023-05-17T18:07:48;102101.49;;;11.67;78.13
79316;BME280;68779;50.036;19.964;2023-05-17T18:38:04;102148.01;;;11.64;78.08
79316;BME280;68779;50.036;19.964;2023-05-17T19:08:20;102180.30;;;11.81;77.40
79316;BME280;68779;50.036;19.964;2023-05-17T19:38:38;102184.53;;;11.97;76.74
79316;BME280;68779;50.036;19.964;2023-05-17T20:39:26;102225.75;;;11.57;78.82
79316;BME280;68779;50.036;19.964;2023-05-17T21:09:40;102237.86;;;11.30;80.12
79316;BME280;68779;50.036;19.964;2023-05-17T21:39:57;102252.59;;;11.51;79.97
79316;BME280;68779;50.036;19.964;2023-05-17T22:10:10;102252.55;;;11.98;78.07
79316;BME280;68779;50.036;19.964;2023-05-17T22:40:24;102263.20;;;11.90;78.27
79316;BME280;68779;50.036;19.964;2023-05-17T23:10:38;102252.30;;;11.90;78.19
79316;BME280;68779;50.036;19.964;2023-05-17T23:40:53;102243.01;;;11.45;79.39
